Time;durP1;ratioP1;P1;durP2;ratioP2;P2;SDS_P1;SDS_P2;PMS_P1;PMS_P2;Temp;Humidity;BMP_temperature;BMP_pressure;BME280_temperature;BME280_humidity;BME280_pressure;Samples;Min_cycle;Max_cycle;Signal;HPM_P1;HPM_P2
2022/09/23 00:01:06;;;;;;;;;;;;;;;8.83;86.26;100751.67;1426399;91;20347;-79
2022/09/23 00:03:34;;;;;;;;;;;;;;;8.82;86.27;100755.29;1435387;90;20330;-79
2022/09/23 00:06:05;;;;;;;;;;;;;;;8.83;86.07;100749.03;1450422;89;20344;-80
2022/09/23 00:08:32;;;;;;;;;;;;;;;8.85;86.73;100743.64;1448468;90;20315;-79
2022/09/23 00:11:10;;;;;;;;;;;;;;;8.84;87.91;100749.41;1456886;89;20857;-79
2022/09/23 00:13:39;;;;;;;;;;;;;;;8.83;86.61;100741.60;1444411;90;20456;-78
2022/09/23 00:16:08;;;;;;;;;;;;;;;8.79;86.65;100743.18;1456041;89;20307;-79
2022/09/23 00:18:35;;;;;;;;;;;;;;;8.75;87.67;100741.78;1452881;89;20420;-79
2022/09/23 00:21:08;;;;;;;;;;;;;;;8.73;88.32;100745.02;1443302;89;20840;-78
2022/09/23 00:23:35;;;;;;;;;;;;;;;8.73;88.75;100741.55;1453183;90;20358;-78
2022/09/23 00:26:05;;;;;;;;;;;;;;;8.76;88.05;100742.61;1450712;90;20388;-78
2022/09/23 00:28:33;;;;;;;;;;;;;;;8.82;87.86;100739.45;1456706;90;20315;-79
2022/09/23 00:31:13;;;;;;;;;;;;;;;8.85;88.32;100737.88;1426611;91;20398;-79
2022/09/23 00:33:40;;;;;;;;;;;;;;;8.87;88.26;100732.48;1426591;91;20289;-78
2022/09/23 00:36:15;;;;;;;;;;;;;;;8.88;87.08;100737.61;1429992;90;20372;-78
2022/09/23 00:38:43;;;;;;;;;;;;;;;8.93;86.97;100737.23;1450933;90;20784;-79
2022/09/23 00:41:10;;;;;;;;;;;;;;;8.96;86.44;100730.38;1447271;90;20314;-79
2022/09/23 00:43:40;;;;;;;;;;;;;;;9.01;86.47;100726.38;1436452;90;20316;-79
2022/09/23 00:46:08;;;;;;;;;;;;;;;9.07;86.19;100735.59;1445813;90;20313;-79
2022/09/23 00:48:38;;;;;;;;;;;;;;;9.10;85.80;100723.93;1450839;89;20314;-79
2022/09/23 00:51:07;;;;;;;;;;;;;;;9.10;86.38;100726.57;1444225;90;20312;-77
2022/09/23 00:53:35;;;;;;;;;;;;;;;9.08;86.15;100727.17;1450074;89;20478;-78
2022/09/23 00:56:06;;;;;;;;;;;;;;;9.02;86.29;100724.58;1452101;90;20353;-79
2022/09/23 00:58:35;;;;;;;;;;;;;;;8.97;86.89;100727.59;1457976;90;20496;-78
2022/09/23 01:01:03;;;;;;;;;;;;;;;8.92;87.24;100724.53;1453369;90;20846;-79
2022/09/23 01:03:30;;;;;;;;;;;;;;;8.87;88.17;100726.71;1457483;89;20339;-79
2022/09/23 01:05:57;;;;;;;;;;;;;;;8.82;88.93;100731.53;1455146;90;20399;-79
2022/09/23 01:08:26;;;;;;;;;;;;;;;8.79;89.63;100730.47;1453874;89;20317;-79
2022/09/23 01:11:05;;;;;;;;;;;;;;;8.74;90.09;100730.84;1453272;89;20331;-79
2022/09/23 01:14:11;;;;;;;;;;;;;;;8.72;89.27;100728.02;1450281;90;20830;-79
2022/09/23 01:16:45;;;;;;;;;;;;;;;8.70;89.51;100728.61;1445608;89;20292;-79
2022/09/23 01:19:30;;;;;;;;;;;;;;;8.72;90.18;100731.97;1451704;90;21057;-79
2022/09/23 01:22:01;;;;;;;;;;;;;;;8.71;89.84;100729.78;1445353;90;20300;-79
2022/09/23 01:24:58;;;;;;;;;;;;;;;8.73;89.47;100730.98;1440750;89;20233;-77
2022/09/23 01:27:35;;;;;;;;;;;;;;;8.79;89.46;100737.07;1434246;90;20791;-79
2022/09/23 01:30:18;;;;;;;;;;;;;;;8.81;89.31;100735.16;1437010;90;20354;-79
2022/09/23 01:32:52;;;;;;;;;;;;;;;8.83;88.79;100734.52;1426929;90;20297;-79
2022/09/23 01:35:41;;;;;;;;;;;;;;;8.87;89.07;100736.44;1452178;90;20752;-78
2022/09/23 01:38:24;;;;;;;;;;;;;;;8.89;88.75;100730.06;1433499;90;20265;-79
2022/09/23 01:40:58;;;;;;;;;;;;;;;8.88;88.78;100735.46;1448550;89;21138;-78
2022/09/23 01:43:41;;;;;;;;;;;;;;;8.90;88.39;100738.82;1446433;89;20398;-76
2022/09/23 01:46:14;;;;;;;;;;;;;;;8.92;87.94;100737.73;1441974;90;20400;-77
2022/09/23 01:48:48;;;;;;;;;;;;;;;8.94;88.29;100737.58;1456412;90;20371;-79
2022/09/23 01:51:21;;;;;;;;;;;;;;;8.97;87.78;100736.83;1455383;89;20455;-79
2022/09/23 01:53:52;;;;;;;;;;;;;;;8.99;87.77;100737.55;1431611;90;20320;-79
2022/09/23 01:56:38;;;;;;;;;;;;;;;8.94;87.97;100740.22;1447383;90;20929;-78
2022/09/23 01:59:15;;;;;;;;;;;;;;;8.91;87.62;100737.35;1453027;89;20420;-77
2022/09/23 02:01:49;;;;;;;;;;;;;;;8.92;87.26;100731.58;1447603;90;20323;-79
2022/09/23 02:04:33;;;;;;;;;;;;;;;8.94;87.77;100730.98;1450713;90;20307;-78
2022/09/23 02:07:07;;;;;;;;;;;;;;;8.92;87.29;100735.09;1443483;90;20352;-79
2022/09/23 02:09:37;;;;;;;;;;;;;;;8.88;87.78;100731.02;1440971;90;21104;-78
2022/09/23 02:12:07;;;;;;;;;;;;;;;8.89;87.30;100730.06;1450152;89;20278;-78
2022/09/23 02:14:50;;;;;;;;;;;;;;;8.90;87.46;100723.81;1453481;90;21757;-79
2022/09/23 02:17:20;;;;;;;;;;;;;;;8.91;87.84;100728.11;1451231;89;20435;-79
2022/09/23 02:19:51;;;;;;;;;;;;;;;8.93;87.89;100728.83;1451508;90;20432;-80
2022/09/23 02:22:21;;;;;;;;;;;;;;;8.90;88.10;100729.09;1444475;90;20542;-80
2022/09/23 02:24:48;;;;;;;;;;;;;;;8.90;88.04;100733.54;1459171;89;20291;-79
2022/09/23 02:27:36;;;;;;;;;;;;;;;8.87;87.82;100731.16;1450699;89;20320;-77
2022/09/23 02:30:12;;;;;;;;;;;;;;;8.80;88.23;100730.36;1457944;90;20277;-80
2022/09/23 02:33:07;;;;;;;;;;;;;;;8.79;87.64;100727.83;1450462;90;20364;-79
2022/09/23 02:35:36;;;;;;;;;;;;;;;8.80;88.50;100722.90;1456728;90;20247;-79
2022/09/23 02:38:26;;;;;;;;;;;;;;;8.80;88.06;100720.26;1432188;90;20338;-79
2022/09/23 02:41:00;;;;;;;;;;;;;;;8.77;88.57;100720.52;1451963;90;20278;-78
2022/09/23 02:43:32;;;;;;;;;;;;;;;8.73;88.80;100724.39;1456181;90;20323;-79
2022/09/23 02:46:00;;;;;;;;;;;;;;;8.72;88.77;100725.37;1454675;90;20367;-78
2022/09/23 02:48:30;;;;;;;;;;;;;;;8.72;88.85;100724.05;1455697;90;20277;-79
2022/09/23 02:51:01;;;;;;;;;;;;;;;8.73;88.79;100722.59;1455401;90;20432;-79
2022/09/23 02:53:27;;;;;;;;;;;;;;;8.77;89.19;100722.67;1450899;89;20822;-79
2022/09/23 02:55:54;;;;;;;;;;;;;;;8.80;89.23;100726.86;1451293;90;20785;-79
2022/09/23 02:58:21;;;;;;;;;;;;;;;8.79;89.41;100733.95;1434441;90;20270;-79
2022/09/23 03:01:01;;;;;;;;;;;;;;;8.74;89.91;100734.80;1447619;90;20315;-77
2022/09/23 03:03:37;;;;;;;;;;;;;;;8.74;89.20;100732.66;1444388;90;20316;-78
2022/09/23 03:06:11;;;;;;;;;;;;;;;8.73;88.91;100736.27;1451420;89;20432;-80
2022/09/23 03:08:49;;;;;;;;;;;;;;;8.74;88.74;100732.66;1452255;90;20307;-79
2022/09/23 03:11:16;;;;;;;;;;;;;;;8.76;89.05;100737.33;1451809;90;20397;-80
2022/09/23 03:14:06;;;;;;;;;;;;;;;8.79;89.48;100731.80;1474592;88;20293;-80
2022/09/23 03:16:39;;;;;;;;;;;;;;;8.80;89.34;100734.78;1447362;90;20279;-80
2022/09/23 03:19:34;;;;;;;;;;;;;;;8.81;89.79;100739.11;1452422;90;20337;-81
2022/09/23 03:22:13;;;;;;;;;;;;;;;8.78;89.10;100735.41;1451463;90;20435;-81
2022/09/23 03:24:43;;;;;;;;;;;;;;;8.75;89.46;100734.34;1439434;89;20354;-81
2022/09/23 03:27:17;;;;;;;;;;;;;;;8.70;89.88;100740.48;1436361;91;20287;-81
2022/09/23 03:29:47;;;;;;;;;;;;;;;8.68;89.16;100743.23;1432981;89;20302;-80
2022/09/23 03:32:17;;;;;;;;;;;;;;;8.68;89.63;100735.32;1430763;91;20259;-81
2022/09/23 03:34:47;;;;;;;;;;;;;;;8.69;89.43;100746.70;1435849;91;20339;-81
2022/09/23 03:37:18;;;;;;;;;;;;;;;8.68;90.09;100737.12;1432595;90;20344;-80
2022/09/23 03:39:55;;;;;;;;;;;;;;;8.67;90.39;100735.47;1445084;90;20352;-79
2022/09/23 03:42:25;;;;;;;;;;;;;;;8.67;89.97;100742.06;1450469;89;20433;-80
2022/09/23 03:44:55;;;;;;;;;;;;;;;8.66;89.89;100741.23;1445389;89;20337;-80
2022/09/23 03:47:27;;;;;;;;;;;;;;;8.65;89.68;100738.70;1452636;89;20403;-79
2022/09/23 03:49:55;;;;;;;;;;;;;;;8.67;89.74;100738.94;1448699;90;20268;-79
2022/09/23 03:52:23;;;;;;;;;;;;;;;8.68;90.38;100745.05;1455658;89;20286;-79
2022/09/23 03:54:51;;;;;;;;;;;;;;;8.68;89.64;100737.12;1451849;90;20339;-79
2022/09/23 03:57:20;;;;;;;;;;;;;;;8.72;89.28;100733.29;1458484;89;20338;-79
2022/09/23 03:59:50;;;;;;;;;;;;;;;8.76;89.58;100731.56;1447533;90;20315;-79
2022/09/23 04:02:18;;;;;;;;;;;;;;;8.80;89.57;100735.64;1453716;90;20807;-80
2022/09/23 04:04:46;;;;;;;;;;;;;;;8.79;88.84;100732.63;1455178;89;20315;-80
2022/09/23 04:07:13;;;;;;;;;;;;;;;8.75;88.78;100731.22;1450773;90;21231;-80
2022/09/23 04:09:40;;;;;;;;;;;;;;;8.73;88.53;100728.35;1440152;90;20293;-80
2022/09/23 04:12:09;;;;;;;;;;;;;;;8.68;88.71;100731.84;1428985;91;20346;-80
2022/09/23 04:14:36;;;;;;;;;;;;;;;8.65;88.60;100726.83;1419848;91;20280;-80
2022/09/23 04:17:03;;;;;;;;;;;;;;;8.58;89.03;100728.66;1405497;93;20410;-80
2022/09/23 04:19:29;;;;;;;;;;;;;;;8.55;88.89;100732.88;1408514;92;20310;-80
2022/09/23 04:21:56;;;;;;;;;;;;;;;8.54;89.37;100731.19;1415023;92;20317;-80
2022/09/23 04:24:23;;;;;;;;;;;;;;;8.52;90.46;100735.77;1410070;92;20283;-80
2022/09/23 04:26:52;;;;;;;;;;;;;;;8.53;89.96;100734.80;1425563;91;20309;-80
2022/09/23 04:29:20;;;;;;;;;;;;;;;8.56;90.35;100738.50;1467237;90;20254;-79
2022/09/23 04:31:47;;;;;;;;;;;;;;;8.58;90.16;100739.70;1455078;90;20365;-78
2022/09/23 04:34:17;;;;;;;;;;;;;;;8.56;89.97;100739.81;1456375;90;20556;-78
2022/09/23 04:36:45;;;;;;;;;;;;;;;8.56;90.13;100741.63;1456917;89;20378;-78
2022/09/23 04:39:13;;;;;;;;;;;;;;;8.55;90.30;100742.11;1415074;92;20302;-80
2022/09/23 04:41:41;;;;;;;;;;;;;;;8.55;91.10;100740.79;1459276;89;20291;-79
2022/09/23 04:44:10;;;;;;;;;;;;;;;8.57;90.88;100741.52;1442807;90;20242;-80
2022/09/23 04:46:39;;;;;;;;;;;;;;;8.56;91.35;100743.77;1444809;90;20857;-80
2022/09/23 04:49:07;;;;;;;;;;;;;;;8.56;91.19;100742.45;1450645;89;20275;-78
2022/09/23 04:51:33;;;;;;;;;;;;;;;8.62;90.80;100742.92;1451787;90;20322;-80
2022/09/23 04:54:00;;;;;;;;;;;;;;;8.67;90.99;100738.94;1451706;90;20262;-80
2022/09/23 04:56:33;;;;;;;;;;;;;;;8.74;90.75;100745.36;1447571;90;20285;-79
2022/09/23 04:59:00;;;;;;;;;;;;;;;8.80;90.87;100748.83;1444038;90;20441;-80
2022/09/23 05:01:33;;;;;;;;;;;;;;;8.86;90.46;100747.94;1454693;89;20390;-80
2022/09/23 05:04:04;;;;;;;;;;;;;;;8.88;90.44;100749.49;1453529;90;20270;-80
2022/09/23 05:06:33;;;;;;;;;;;;;;;8.87;90.80;100749.64;1459695;89;20864;-80
2022/09/23 05:09:01;;;;;;;;;;;;;;;8.86;90.98;100748.80;1444178;90;20308;-80
2022/09/23 05:11:30;;;;;;;;;;;;;;;8.83;91.62;100752.98;1447617;90;20219;-80
2022/09/23 05:13:57;;;;;;;;;;;;;;;8.80;91.12;100753.25;1438317;90;20413;-79
2022/09/23 05:16:25;;;;;;;;;;;;;;;8.83;91.80;100752.98;1448671;90;20278;-79
2022/09/23 05:18:53;;;;;;;;;;;;;;;8.87;90.92;100757.55;1436137;90;20860;-80
2022/09/23 05:21:25;;;;;;;;;;;;;;;8.91;90.61;100758.47;1449702;90;20410;-80
2022/09/23 05:23:55;;;;;;;;;;;;;;;8.99;90.61;100757.34;1454909;90;20315;-80
2022/09/23 05:26:24;;;;;;;;;;;;;;;9.11;90.59;100758.11;1458280;90;20292;-80
2022/09/23 05:28:51;;;;;;;;;;;;;;;9.23;90.50;100753.09;1450471;90;20390;-79
2022/09/23 05:31:20;;;;;;;;;;;;;;;9.36;90.06;100763.96;1450740;90;20307;-80
2022/09/23 05:33:53;;;;;;;;;;;;;;;9.49;89.93;100760.59;1462554;90;20301;-80
2022/09/23 05:36:20;;;;;;;;;;;;;;;9.57;89.50;100760.77;1453400;89;20308;-79
2022/09/23 05:38:49;;;;;;;;;;;;;;;9.59;88.23;100765.94;1454663;89;20293;-80
2022/09/23 05:41:17;;;;;;;;;;;;;;;9.56;86.45;100762.25;1454421;90;20397;-78
2022/09/23 05:43:46;;;;;;;;;;;;;;;9.52;86.06;100763.46;1456252;90;20360;-79
2022/09/23 05:46:16;;;;;;;;;;;;;;;9.55;86.31;100762.73;1450306;90;20392;-82
2022/09/23 05:48:46;;;;;;;;;;;;;;;9.61;86.45;100763.52;1449849;90;20408;-81
2022/09/23 05:51:16;;;;;;;;;;;;;;;9.66;86.29;100766.58;1452026;89;20573;-82
2022/09/23 05:53:44;;;;;;;;;;;;;;;9.74;86.92;100770.38;1448715;90;20227;-82
2022/09/23 05:56:16;;;;;;;;;;;;;;;9.78;86.10;100777.05;1447175;90;20277;-78
2022/09/23 05:58:43;;;;;;;;;;;;;;;9.81;86.03;100773.68;1449966;90;21161;-79
2022/09/23 06:01:16;;;;;;;;;;;;;;;9.91;85.51;100772.37;1449148;90;20413;-79
2022/09/23 06:03:47;;;;;;;;;;;;;;;10.02;86.05;100773.59;1449930;90;20464;-78
2022/09/23 06:06:20;;;;;;;;;;;;;;;10.10;84.57;100780.86;1453935;90;20571;-78
2022/09/23 06:08:46;;;;;;;;;;;;;;;10.20;84.04;100779.05;1456087;90;20406;-79
2022/09/23 06:11:13;;;;;;;;;;;;;;;10.25;83.12;100775.52;1459051;89;20733;-79
2022/09/23 06:13:40;;;;;;;;;;;;;;;10.34;82.69;100778.69;1454697;90;20314;-80
2022/09/23 06:16:10;;;;;;;;;;;;;;;10.49;82.79;100774.31;1455790;89;20382;-82
2022/09/23 06:18:38;;;;;;;;;;;;;;;10.60;81.95;100776.34;1448923;90;20374;-82
2022/09/23 06:21:05;;;;;;;;;;;;;;;10.61;80.90;100765.25;1449578;90;20316;-81
2022/09/23 06:23:33;;;;;;;;;;;;;;;10.69;81.47;100768.05;1450618;90;20294;-82
2022/09/23 06:26:01;;;;;;;;;;;;;;;10.71;80.41;100774.05;1449443;90;20413;-82
2022/09/23 06:28:32;;;;;;;;;;;;;;;10.77;80.87;100773.48;1450463;90;20875;-81
2022/09/23 06:31:07;;;;;;;;;;;;;;;10.84;80.01;100777.22;1451238;89;20334;-82
2022/09/23 06:33:34;;;;;;;;;;;;;;;10.88;80.09;100777.80;1448708;90;20822;-80
2022/09/23 06:36:04;;;;;;;;;;;;;;;10.96;79.97;100775.75;1447546;89;20307;-82
2022/09/23 06:38:32;;;;;;;;;;;;;;;11.03;79.62;100779.02;1455409;90;20262;-87
2022/09/23 06:41:02;;;;;;;;;;;;;;;11.02;79.20;100779.19;1448643;90;20285;-89
2022/09/23 06:43:29;;;;;;;;;;;;;;;11.04;78.08;100779.85;1449973;89;21039;-88
2022/09/23 06:45:58;;;;;;;;;;;;;;;11.11;78.20;100788.92;1450061;90;20412;-85
2022/09/23 06:48:26;;;;;;;;;;;;;;;11.26;79.17;100788.80;1448335;90;20293;-88
2022/09/23 06:50:56;;;;;;;;;;;;;;;11.43;79.40;100785.08;1444009;90;20307;-86
2022/09/23 06:53:23;;;;;;;;;;;;;;;11.47;77.14;100785.12;1455166;90;20293;-88
2022/09/23 06:56:01;;;;;;;;;;;;;;;11.60;77.31;100794.92;1443942;90;20321;-91
2022/09/23 06:58:30;;;;;;;;;;;;;;;11.81;77.37;100792.03;1448023;90;20310;-85
2022/09/23 07:01:06;;;;;;;;;;;;;;;12.11;75.49;100798.91;1458362;90;20263;-88
2022/09/23 07:03:34;;;;;;;;;;;;;;;12.29;76.06;100800.75;1445618;90;20432;-87
2022/09/23 07:06:01;;;;;;;;;;;;;;;12.45;73.65;100797.42;1454557;90;20285;-87
2022/09/23 07:08:29;;;;;;;;;;;;;;;12.54;72.09;100801.32;1439405;90;20404;-86
2022/09/23 07:10:58;;;;;;;;;;;;;;;12.59;73.06;100795.06;1452193;90;20308;-88
2022/09/23 07:13:25;;;;;;;;;;;;;;;12.71;72.44;100799.66;1435695;90;20285;-89
2022/09/23 07:15:55;;;;;;;;;;;;;;;12.84;71.56;100797.95;1450684;90;20309;-87
2022/09/23 07:18:24;;;;;;;;;;;;;;;12.95;70.42;100803.03;1458191;90;20322;-87
2022/09/23 07:20:52;;;;;;;;;;;;;;;13.06;69.72;100801.46;1451043;90;20258;-88
2022/09/23 07:23:19;;;;;;;;;;;;;;;13.10;68.02;100797.99;1452886;90;20614;-88
2022/09/23 07:25:48;;;;;;;;;;;;;;;13.21;68.81;100799.58;1445628;90;20960;-86
2022/09/23 07:28:15;;;;;;;;;;;;;;;13.16;64.84;100801.86;1450058;90;20703;-88
2022/09/23 07:30:43;;;;;;;;;;;;;;;13.29;67.55;100804.95;1456468;89;20345;-88
2022/09/23 07:33:10;;;;;;;;;;;;;;;13.23;65.11;100795.74;1451909;90;20293;-88
2022/09/23 07:35:40;;;;;;;;;;;;;;;13.29;65.54;100797.84;1444655;90;20293;-89
2022/09/23 07:38:10;;;;;;;;;;;;;;;13.42;66.65;100802.72;1451474;90;20784;-88
2022/09/23 07:40:38;;;;;;;;;;;;;;;13.44;65.26;100798.59;1454054;89;20226;-87
2022/09/23 07:43:07;;;;;;;;;;;;;;;13.42;64.13;100801.89;1451036;90;20277;-87
2022/09/23 07:45:33;;;;;;;;;;;;;;;13.34;61.85;100800.01;1446220;90;20293;-81
2022/09/23 07:48:01;;;;;;;;;;;;;;;13.49;64.58;100811.75;1454817;90;20309;-80
2022/09/23 07:50:32;;;;;;;;;;;;;;;13.51;65.20;100808.92;1446263;90;20897;-80
2022/09/23 07:52:56;;;;;;;;;;;;;;;13.61;66.09;100812.78;1450062;90;20235;-80
2022/09/23 07:55:23;;;;;;;;;;;;;;;13.65;64.66;100808.84;1427930;90;20220;-80
2022/09/23 07:57:50;;;;;;;;;;;;;;;13.75;63.65;100805.55;1424215;91;20294;-81
2022/09/23 08:00:17;;;;;;;;;;;;;;;13.83;62.78;100804.76;1426491;91;20242;-80
2022/09/23 08:02:44;;;;;;;;;;;;;;;13.86;63.22;100807.93;1426127;91;20367;-80
2022/09/23 08:05:11;;;;;;;;;;;;;;;13.89;59.98;100799.63;1423590;91;20799;-80
2022/09/23 08:07:38;;;;;;;;;;;;;;;13.97;60.23;100802.32;1427687;91;20316;-80
2022/09/23 08:10:06;;;;;;;;;;;;;;;14.07;61.06;100806.20;1423027;91;20353;-78
2022/09/23 08:12:33;;;;;;;;;;;;;;;13.88;57.68;100802.46;1428372;90;20442;-86
2022/09/23 08:15:01;;;;;;;;;;;;;;;14.11;60.45;100806.70;1431334;91;20360;-78
2022/09/23 08:17:28;;;;;;;;;;;;;;;14.21;61.30;100804.72;1452482;89;20374;-87
2022/09/23 08:19:54;;;;;;;;;;;;;;;14.08;59.13;100805.70;1450529;90;20283;-88
2022/09/23 08:22:21;;;;;;;;;;;;;;;13.98;59.11;100804.01;1446029;90;20895;-80
2022/09/23 08:24:50;;;;;;;;;;;;;;;14.14;60.38;100806.37;1446637;90;20279;-81
2022/09/23 08:27:17;;;;;;;;;;;;;;;14.16;59.44;100809.73;1447052;90;20300;-79
2022/09/23 08:29:44;;;;;;;;;;;;;;;14.18;59.64;100811.70;1453870;90;20330;-79
2022/09/23 08:32:10;;;;;;;;;;;;;;;14.09;59.51;100809.52;1455334;90;20285;-80
2022/09/23 08:34:37;;;;;;;;;;;;;;;14.10;59.73;100810.37;1447355;90;20235;-80
2022/09/23 08:37:10;;;;;;;;;;;;;;;14.10;58.82;100809.05;1446106;90;20220;-80
2022/09/23 08:39:36;;;;;;;;;;;;;;;14.18;59.61;100806.37;1453357;90;20778;-80
2022/09/23 08:42:19;;;;;;;;;;;;;;;14.33;60.24;100798.63;1455578;90;20255;-80
2022/09/23 08:44:52;;;;;;;;;;;;;;;14.23;60.42;100798.75;1442065;90;20524;-79
2022/09/23 08:47:26;;;;;;;;;;;;;;;14.25;57.93;100795.44;1438292;90;20554;-79
2022/09/23 08:50:05;;;;;;;;;;;;;;;14.51;60.29;100803.81;1523449;89;20793;-80
2022/09/23 08:52:38;;;;;;;;;;;;;;;14.78;60.46;100791.53;1513198;90;20293;-79
2022/09/23 08:55:07;;;;;;;;;;;;;;;14.51;58.21;100795.83;1364020;96;20300;-79
2022/09/23 08:57:44;;;;;;;;;;;;;;;14.57;59.24;100800.02;1371748;90;20324;-79
2022/09/23 09:00:22;;;;;;;;;;;;;;;14.78;58.89;100791.53;1492824;91;21143;-80
2022/09/23 09:02:49;;;;;;;;;;;;;;;14.93;57.99;100784.20;1349917;90;20904;-79
2022/09/23 09:05:18;;;;;;;;;;;;;;;15.13;57.52;100786.86;1368730;90;20341;-80
2022/09/23 09:07:45;;;;;;;;;;;;;;;15.30;58.09;100782.33;1515254;90;20756;-79
2022/09/23 09:10:18;;;;;;;;;;;;;;;15.32;57.25;100789.16;1352279;91;20251;-78
2022/09/23 09:12:48;;;;;;;;;;;;;;;15.23;56.90;100777.36;1363415;91;20734;-80
2022/09/23 09:15:23;;;;;;;;;;;;;;;15.59;56.88;100775.08;1372913;90;20316;-82
2022/09/23 09:18:13;;;;;;;;;;;;;;;15.97;56.96;100767.31;1521596;90;20242;-79
2022/09/23 09:20:58;;;;;;;;;;;;;;;15.99;56.24;100768.78;1488801;92;20372;-79
2022/09/23 09:23:29;;;;;;;;;;;;;;;15.60;54.33;100774.09;1499162;91;20371;-80
2022/09/23 09:25:58;;;;;;;;;;;;;;;15.23;55.60;100772.86;1355890;92;20857;-78
2022/09/23 09:28:29;;;;;;;;;;;;;;;14.83;56.55;100777.22;1510384;91;20363;-79
2022/09/23 09:30:59;;;;;;;;;;;;;;;15.00;57.12;100770.05;1363595;91;20340;-79
2022/09/23 09:33:29;;;;;;;;;;;;;;;15.05;55.50;100768.23;1359111;91;21235;-79
2022/09/23 09:36:00;;;;;;;;;;;;;;;15.33;57.48;100761.52;1340192;92;20252;-80
2022/09/23 09:38:29;;;;;;;;;;;;;;;15.30;56.11;100761.83;1422881;91;20365;-80
2022/09/23 09:40:59;;;;;;;;;;;;;;;15.62;55.73;100764.06;1430610;90;20924;-80
2022/09/23 09:43:26;;;;;;;;;;;;;;;15.79;55.76;100762.20;1418544;91;20309;-79
2022/09/23 09:46:32;;;;;;;;;;;;;;;15.82;54.62;100762.36;1428057;91;20302;-80
2022/09/23 09:49:04;;;;;;;;;;;;;;;15.47;53.46;100760.46;1433532;91;20801;-80
2022/09/23 09:51:31;;;;;;;;;;;;;;;15.14;55.41;100757.88;1417374;92;20320;-80
2022/09/23 09:54:23;;;;;;;;;;;;;;;15.08;56.99;100771.89;1427371;91;20879;-81
2022/09/23 09:56:51;;;;;;;;;;;;;;;14.82;57.65;100766.75;1437428;91;20402;-80
2022/09/23 09:59:22;;;;;;;;;;;;;;;14.74;58.58;100766.23;1427182;91;20273;-81
2022/09/23 10:01:50;;;;;;;;;;;;;;;14.93;57.01;100764.22;1413299;91;20402;-80
2022/09/23 10:04:26;;;;;;;;;;;;;;;15.15;54.34;100754.70;1434046;91;20317;-80
2022/09/23 10:07:09;;;;;;;;;;;;;;;15.58;55.10;100758.76;1432921;91;21254;-81
2022/09/23 10:09:38;;;;;;;;;;;;;;;16.00;50.27;100753.61;1431911;91;20309;-80
2022/09/23 10:12:14;;;;;;;;;;;;;;;16.33;50.11;100754.74;1439485;91;20875;-81
2022/09/23 10:14:42;;;;;;;;;;;;;;;16.45;49.95;100749.31;1424370;91;20311;-80
2022/09/23 10:17:24;;;;;;;;;;;;;;;16.22;49.17;100750.63;1434912;91;20424;-79
2022/09/23 10:19:59;;;;;;;;;;;;;;;15.90;49.35;100744.98;1434264;91;20861;-79
2022/09/23 10:22:32;;;;;;;;;;;;;;;15.69;51.67;100747.75;1426009;91;20226;-83
2022/09/23 10:25:02;;;;;;;;;;;;;;;15.99;53.82;100746.09;1433397;91;20330;-82
2022/09/23 10:27:32;;;;;;;;;;;;;;;16.29;52.74;100748.11;1417578;91;20876;-85
2022/09/23 10:30:02;;;;;;;;;;;;;;;16.68;54.12;100742.11;1422019;91;20287;-85
2022/09/23 10:32:33;;;;;;;;;;;;;;;16.96;49.68;100740.75;1439426;90;20333;-85
2022/09/23 10:35:12;;;;;;;;;;;;;;;16.74;45.19;100737.06;1439702;89;20345;-83
2022/09/23 10:37:42;;;;;;;;;;;;;;;16.65;45.17;100738.97;1445636;90;20311;-83
2022/09/23 10:49:23;;;;;;;;;;;;;;;16.35;46.84;100733.53;1446003;90;20880;-83
2022/09/23 10:51:56;;;;;;;;;;;;;;;16.37;48.98;100736.86;1442479;90;20919;-83
2022/09/23 10:54:38;;;;;;;;;;;;;;;16.77;50.23;100732.72;1436688;90;20463;-83
2022/09/23 10:57:36;;;;;;;;;;;;;;;17.05;48.29;100719.09;1451516;90;20522;-83
2022/09/23 10:59:48;;;;;;;;;;;;;;;17.02;43.73;100724.80;1431999;90;20353;-83
2022/09/23 11:02:18;;;;;;;;;;;;;;;17.13;45.87;100714.99;1444834;90;20270;-81
2022/09/23 11:05:19;;;;;;;;;;;;;;;17.43;44.83;100713.65;1439114;90;20338;-83
2022/09/23 11:07:50;;;;;;;;;;;;;;;17.48;43.77;100714.44;1433194;90;20323;-81
2022/09/23 11:10:29;;;;;;;;;;;;;;;17.70;44.93;100711.34;1456564;88;20398;-83
2022/09/23 11:13:12;;;;;;;;;;;;;;;17.78;42.65;100715.25;1449524;90;20278;-83
2022/09/23 11:16:01;;;;;;;;;;;;;;;18.06;42.15;100714.55;1423995;90;20413;-83
2022/09/23 11:19:00;;;;;;;;;;;;;;;18.04;41.25;100706.20;1435021;90;20860;-83
2022/09/23 11:21:46;;;;;;;;;;;;;;;18.47;44.28;100707.55;1438957;90;20360;-82
2022/09/23 11:24:32;;;;;;;;;;;;;;;18.62;43.36;100710.67;1443677;90;20330;-83
2022/09/23 11:27:15;;;;;;;;;;;;;;;18.88;44.91;100706.05;1449383;89;20338;-83
2022/09/23 11:30:10;;;;;;;;;;;;;;;19.06;45.80;100702.35;1437120;88;20288;-83
2022/09/23 11:33:02;;;;;;;;;;;;;;;19.11;45.93;100700.44;1435722;88;20367;-83
2022/09/23 11:35:43;;;;;;;;;;;;;;;19.41;45.72;100706.89;1409723;90;20292;-80
2022/09/23 11:38:13;;;;;;;;;;;;;;;19.46;45.03;100704.44;1439512;88;20310;-81
2022/09/23 11:40:42;;;;;;;;;;;;;;;19.19;45.71;100700.28;1446112;88;20295;-80
2022/09/23 11:43:22;;;;;;;;;;;;;;;18.76;44.22;100704.42;1427836;90;20264;-82
2022/09/23 11:46:02;;;;;;;;;;;;;;;18.54;45.51;100706.78;1451770;88;20304;-82
2022/09/23 11:49:00;;;;;;;;;;;;;;;18.21;46.54;100713.48;1452854;89;20485;-82
2022/09/23 11:51:48;;;;;;;;;;;;;;;17.72;47.14;100713.30;1449464;90;20330;-83
2022/09/23 11:54:21;;;;;;;;;;;;;;;17.32;47.60;100713.62;1452838;90;20292;-82
2022/09/23 11:57:00;;;;;;;;;;;;;;;17.07;48.88;100734.45;1453727;90;20294;-83
2022/09/23 11:59:45;;;;;;;;;;;;;;;15.87;50.89;100738.66;1451072;90;20285;-79
2022/09/23 12:02:16;;;;;;;;;;;;;;;14.92;53.61;100750.58;1449797;90;20359;-81
2022/09/23 12:04:47;;;;;;;;;;;;;;;14.52;56.77;100745.08;1450295;89;20448;-79
2022/09/23 12:07:17;;;;;;;;;;;;;;;14.14;58.18;100751.81;1448037;90;20293;-79
2022/09/23 12:10:00;;;;;;;;;;;;;;;13.59;59.97;100758.44;1446239;90;20285;-80
2022/09/23 12:12:49;;;;;;;;;;;;;;;13.45;61.62;100756.38;1456038;90;20338;-81
2022/09/23 12:15:31;;;;;;;;;;;;;;;13.20;65.27;100759.34;1447691;90;20310;-81
2022/09/23 12:18:38;;;;;;;;;;;;;;;12.85;70.34;100755.78;1432246;91;20890;-80
2022/09/23 12:21:14;;;;;;;;;;;;;;;12.68;71.55;100752.16;1437592;91;20317;-84
2022/09/23 12:23:48;;;;;;;;;;;;;;;12.52;74.96;100755.53;1434136;91;20348;-81
2022/09/23 12:26:17;;;;;;;;;;;;;;;12.33;75.52;100750.36;1426269;91;20427;-81
2022/09/23 12:28:46;;;;;;;;;;;;;;;12.13;77.14;100743.85;1426660;91;20309;-80
2022/09/23 12:31:15;;;;;;;;;;;;;;;12.13;76.72;100747.83;1432051;91;20355;-80
2022/09/23 12:33:51;;;;;;;;;;;;;;;12.09;78.50;100749.63;1427791;90;20513;-80
2022/09/23 12:36:33;;;;;;;;;;;;;;;11.92;79.24;100753.41;1431621;91;20862;-81
2022/09/23 12:39:21;;;;;;;;;;;;;;;11.80;82.74;100750.59;1438803;90;20354;-81
2022/09/23 12:41:50;;;;;;;;;;;;;;;11.75;82.37;100758.98;1434161;90;20392;-81
2022/09/23 12:44:30;;;;;;;;;;;;;;;11.72;81.45;100758.45;1436254;90;20830;-81
2022/09/23 12:47:27;;;;;;;;;;;;;;;11.73;83.75;100754.30;1445818;89;21254;-80
2022/09/23 12:50:00;;;;;;;;;;;;;;;11.79;80.30;100751.56;1444084;89;20414;-80
2022/09/23 12:52:30;;;;;;;;;;;;;;;11.83;80.33;100745.49;1436500;90;20756;-80
2022/09/23 12:55:17;;;;;;;;;;;;;;;11.89;79.35;100726.36;1441432;88;20331;-80
2022/09/23 12:57:44;;;;;;;;;;;;;;;11.97;80.04;100719.83;1434959;88;20376;-80
2022/09/23 13:00:21;;;;;;;;;;;;;;;12.03;80.31;100708.61;1439543;88;20309;-80
2022/09/23 13:08:46;;;;;;;;;;;;;;;12.17;80.14;100696.16;1447576;90;20388;-80
2022/09/23 13:11:28;;;;;;;;;;;;;;;12.27;80.21;100691.25;1444098;89;20317;-79
2022/09/23 13:13:58;;;;;;;;;;;;;;;12.35;80.03;100693.98;1442349;90;20293;-81
2022/09/23 13:16:31;;;;;;;;;;;;;;;12.45;79.72;100697.87;1388453;91;20449;-79
2022/09/23 13:19:00;;;;;;;;;;;;;;;12.52;79.24;100690.48;1421846;91;20498;-78
2022/09/23 13:21:46;;;;;;;;;;;;;;;12.59;79.40;100686.20;1406937;91;20341;-80
2022/09/23 13:24:17;;;;;;;;;;;;;;;12.69;80.72;100692.77;1441165;89;20293;-79